Thunder radar more information blitzortung!


Radar de pluja more information rain snow radar


Visita la nostra xarxa de llocs de meteo:

Template documentation
and downloads

And another site



No particular awareness of the weather is required.    There are no Weather-warnings

Pagina Historial Weather Underground text

Diari Resum January 20, 2018 Unitats:  Mètric    Imperial   Tant
« Previous Dia
SegĂźent Dia »
Diari Setmana Mensual Anual Personalitzada
  Maxima: Minima: Media:
Temperatura: -17.8 °C -11.2 °C -10.4 °C
Punt de rosada: -17.8 °C -16.8 °C -15.4 °C
Humitat: Humidity % 45 % 55 %
Wind Speed: 0 km/h 0 km/h 11.3 km/h
RĂ fegues de vent: 0 km/h - -
Vent:- - WSW
Pression baro: 0 hPa 34395 hPa -
Precipitacions: 0 mm    
Historical Graphs
 
 
Dades de taula per January 20, 2018
Temps Temperatura Punt de rosada Pression baro Vent Wind Speed RĂ fegues de vent Humitat Rainfall Rate (Hourly)
-17.8 °C -17.8 °C 0 hPa Calm     Humidity % 0 mm
00:00 -11.2 °C -15.2 °C 34567.7 hPa West 5.1 km/h 10.3 km/h 61 % 0 mm
00:10 -10.9 °C -15.1 °C 34533.8 hPa WNW 2.6 km/h 7.7 km/h 60 % 0 mm
00:20 -10.7 °C -15 °C 34533.8 hPa WNW 2.6 km/h 5.1 km/h 59 % 0 mm
00:30 -10.6 °C -15.1 °C 34533.8 hPa West 12.9 km/h 12.9 km/h 58 % 0 mm
00:40 -10.3 °C -14.9 °C 34533.8 hPa West 2.6 km/h 7.7 km/h 57 % 0 mm
00:50 -10.3 °C -15.2 °C 34496.6 hPa WSW 15.6 km/h 25.9 km/h 55 % 0 mm
01:00 -10.1 °C -15.2 °C 34496.6 hPa WSW 2.6 km/h 15.6 km/h 54 % 0 mm
01:10 -9.9 °C -15.1 °C 34533.8 hPa WSW 7.7 km/h 12.9 km/h 54 % 0 mm
01:20 -9.8 °C -15.1 °C 34496.6 hPa West 7.7 km/h 20.8 km/h 53 % 0 mm
01:30 -9.8 °C -15.2 °C 34496.6 hPa West 15.6 km/h 15.6 km/h 52 % 0 mm
07:32 -9.8 °C -15.2 °C 34496.6 hPa WNW 17.9 km/h 17.9 km/h 52 % 0 mm
07:37 -9.9 °C -15.5 °C 34496.6 hPa SW 23.8 km/h 23.8 km/h 51 % 0 mm
07:42 -9.8 °C -15.4 °C 34496.6 hPa WSW 14 km/h 14 km/h 51 % 0 mm
07:47 -9.7 °C -15.3 °C 34462.7 hPa SW 9.8 km/h 9.8 km/h 51 % 0 mm
07:52 -9.9 °C -15.4 °C 34462.7 hPa WNW 32.8 km/h 32.8 km/h 51 % 0 mm
07:57 -9.9 °C -15.5 °C 34462.7 hPa WSW 15 km/h 15 km/h 51 % 0 mm
08:02 -10 °C -15.6 °C 34462.7 hPa SW 23.8 km/h 23.8 km/h 51 % 0 mm
08:07 -9.9 °C -15.4 °C 34462.7 hPa WSW 20.9 km/h 20.9 km/h 51 % 0 mm
08:12 -9.8 °C -15.4 °C 34462.7 hPa WNW 15.6 km/h 15.6 km/h 51 % 0 mm
08:17 -9.9 °C -15.4 °C 34462.7 hPa West 15 km/h 15 km/h 51 % 0 mm
08:22 -9.7 °C -15.3 °C 34462.7 hPa North 9 km/h 9 km/h 51 % 0 mm
08:27 -9.8 °C -15.5 °C 34462.7 hPa ENE 17.9 km/h 17.9 km/h 50 % 0 mm
08:32 -9.9 °C -15.6 °C 34462.7 hPa WSW 17.9 km/h 17.9 km/h 50 % 0 mm
08:37 -9.8 °C -15.6 °C 34462.7 hPa SW 15 km/h 15 km/h 50 % 0 mm
08:42 -9.8 °C -15.6 °C 34462.7 hPa WSW 17.9 km/h 17.9 km/h 50 % 0 mm
08:47 -9.8 °C -15.5 °C 34462.7 hPa ENE 15 km/h 15 km/h 50 % 0 mm
08:52 -9.7 °C -15.4 °C 34462.7 hPa NW 9 km/h 9 km/h 50 % 0 mm
08:57 -9.7 °C -15.6 °C 34462.7 hPa WSW 23.8 km/h 23.8 km/h 49 % 0 mm
09:02 -9.6 °C -15.5 °C 34462.7 hPa NNW 15 km/h 15 km/h 49 % 0 mm
09:07 -9.6 °C -15.4 °C 34462.7 hPa WNW 20.9 km/h 20.9 km/h 49 % 0 mm
09:12 -9.5 °C -15.6 °C 34462.7 hPa West 25.4 km/h 25.4 km/h 48 % 0 mm
09:17 -9.4 °C -15.5 °C 34462.7 hPa WSW 15 km/h 15 km/h 48 % 0 mm
09:22 -9.2 °C -15.3 °C 34462.7 hPa West 9.3 km/h 9.3 km/h 48 % 0 mm
09:27 -9.2 °C -15.3 °C 34462.7 hPa NW 22.5 km/h 22.5 km/h 48 % 0 mm
09:32 -9.1 °C -15.2 °C 34462.7 hPa NW 11.9 km/h 11.9 km/h 48 % 0 mm
09:33 -9.1 °C -15.2 °C 34462.7 hPa WSW 15 km/h 15 km/h 48 % 0 mm
09:38 -9.2 °C -15.5 °C 34462.7 hPa WSW 39.4 km/h 39.4 km/h 47 % 0 mm
09:43 -9.2 °C -15.6 °C 34462.7 hPa WNW 17.9 km/h 17.9 km/h 46 % 0 mm
09:48 -9 °C -15.3 °C 34462.7 hPa WSW 15.3 km/h 15.3 km/h 47 % 0 mm
09:53 -9.1 °C -15.6 °C 34462.7 hPa SW 15 km/h 15 km/h 46 % 0 mm
09:58 -9.1 °C -15.5 °C 34462.7 hPa ESE 9 km/h 9 km/h 46 % 0 mm
10:03 -9 °C -15.4 °C 34462.7 hPa West 20.9 km/h 20.9 km/h 46 % 0 mm
10:08 -9.1 °C -15.7 °C 34462.7 hPa WNW 20.9 km/h 20.9 km/h 45 % 0 mm
10:13 -9.2 °C -15.8 °C 34462.7 hPa WSW 17.9 km/h 17.9 km/h 45 % 0 mm
10:18 -9.2 °C -15.8 °C 34462.7 hPa WSW 15 km/h 15 km/h 45 % 0 mm
10:23 -9.1 °C -15.7 °C 34462.7 hPa SSW 7.6 km/h 7.6 km/h 45 % 0 mm
10:28 -9.1 °C -15.7 °C 34462.7 hPa SW 9 km/h 9 km/h 45 % 0 mm
10:33 -9.3 °C -15.9 °C 34428.8 hPa SW 11.9 km/h 11.9 km/h 45 % 0 mm
10:38 -9.4 °C -16 °C 34428.8 hPa West 9 km/h 9 km/h 45 % 0 mm
10:43 -9.3 °C -15.9 °C 34428.8 hPa SSW 9 km/h 9 km/h 45 % 0 mm
10:48 -9.2 °C -15.8 °C 34462.7 hPa WSW 9 km/h 9 km/h 45 % 0 mm
10:53 -9.3 °C -15.9 °C 34462.7 hPa NW 6 km/h 6 km/h 45 % 0 mm
10:58 -9.4 °C -16 °C 34462.7 hPa SSE 11.9 km/h 11.9 km/h 45 % 0 mm
11:03 -9.3 °C -15.9 °C 34462.7 hPa SSE 3.1 km/h   45 % 0 mm
11:08 -9.3 °C -15.9 °C 34462.7 hPa NW 9 km/h 9 km/h 45 % 0 mm
11:13 -9.3 °C -15.9 °C 34462.7 hPa West 6 km/h 6 km/h 45 % 0 mm
11:18 -9.4 °C -16 °C 34428.8 hPa WSW 15 km/h 15 km/h 45 % 0 mm
11:23 -9.4 °C -16 °C 34428.8 hPa SW 9 km/h 9 km/h 45 % 0 mm
11:28 -9.4 °C -16 °C 34428.8 hPa SSW 11.9 km/h 11.9 km/h 45 % 0 mm
11:33 -9.5 °C -16.1 °C 34428.8 hPa West 6 km/h 6 km/h 45 % 0 mm
11:38 -9.6 °C -16.2 °C 34428.8 hPa SSW 11.9 km/h 11.9 km/h 45 % 0 mm
11:43 -9.7 °C -16.2 °C 34428.8 hPa NW 9 km/h 9 km/h 45 % 0 mm
11:48 -9.8 °C -16.3 °C 34462.7 hPa WSW 9 km/h 9 km/h 45 % 0 mm
11:53 -9.9 °C -16.4 °C 34462.7 hPa West 6.8 km/h 6.8 km/h 45 % 0 mm
11:58 -9.9 °C -16.5 °C 34462.7 hPa SW 6 km/h 6 km/h 45 % 0 mm
12:03 -10 °C -16.6 °C 34428.8 hPa WSW 14 km/h 14 km/h 45 % 0 mm
12:08 -10 °C -16.6 °C 34428.8 hPa SW 9 km/h 9 km/h 45 % 0 mm
12:13 -10.1 °C -16.6 °C 34428.8 hPa WSW 9 km/h 9 km/h 45 % 0 mm
12:18 -10.2 °C -16.7 °C 34428.8 hPa WSW 6.8 km/h 6.8 km/h 45 % 0 mm
12:23 -10.3 °C -16.8 °C 34428.8 hPa WSW 8 km/h 8 km/h 45 % 0 mm
12:28 -10.2 °C -16.6 °C 34428.8 hPa WNW 9.8 km/h 9.8 km/h 46 % 0 mm
12:33 -10.3 °C -16.6 °C 34428.8 hPa WSW 9 km/h 9 km/h 46 % 0 mm
12:38 -10.3 °C -16.7 °C 34428.8 hPa SW 11.9 km/h 11.9 km/h 46 % 0 mm
12:43 -10.3 °C -16.7 °C 34428.8 hPa WSW 9 km/h 11.1 km/h 46 % 0 mm
12:48 -10.4 °C -16.7 °C 34428.8 hPa WSW 7.6 km/h 7.6 km/h 46 % 0 mm
12:53 -10.5 °C -16.8 °C 34428.8 hPa SW 6.3 km/h 6.3 km/h 46 % 0 mm
12:58 -10.5 °C -16.8 °C 34428.8 hPa WSW 11.9 km/h 11.9 km/h 46 % 0 mm
13:03 -10.6 °C -16.7 °C 34395 hPa WSW 9 km/h 9 km/h 47 % 0 mm
13:08 -10.6 °C -16.8 °C 34395 hPa West 6.3 km/h 6.3 km/h 47 % 0 mm
13:13 -10.7 °C -16.8 °C 34395 hPa WSW 9 km/h 9 km/h 47 % 0 mm
13:18 -10.7 °C -16.8 °C 34395 hPa SW 9 km/h 9 km/h 47 % 0 mm
13:23 -10.8 °C -16.7 °C 34395 hPa West 9 km/h 9 km/h 48 % 0 mm
13:28 -10.8 °C -16.8 °C 34395 hPa WSW 9 km/h 9 km/h 48 % 0 mm
13:33 -10.8 °C -16.8 °C 34428.8 hPa WSW 8 km/h 8 km/h 48 % 0 mm
13:38 -10.9 °C -16.7 °C 34428.8 hPa SW 8 km/h 8 km/h 49 % 0 mm
13:43 -10.8 °C -16.6 °C 34428.8 hPa SW 15 km/h 15 km/h 49 % 0 mm
13:48 -10.8 °C -16.5 °C 34428.8 hPa West 9 km/h 9 km/h 50 % 0 mm
13:53 -10.9 °C -16.5 °C 34428.8 hPa West 9 km/h 9 km/h 50 % 0 mm
13:58 -10.8 °C -16.5 °C 34428.8 hPa West 9 km/h 9 km/h 50 % 0 mm
14:03 -10.8 °C -16.5 °C 34428.8 hPa West 9 km/h 9 km/h 50 % 0 mm
14:08 -10.8 °C -16.3 °C 34428.8 hPa West 9 km/h 9 km/h 51 % 0 mm
14:13 -10.8 °C -16.3 °C 34428.8 hPa WSW 9 km/h 9 km/h 51 % 0 mm
14:18 -10.8 °C -16.3 °C 34428.8 hPa West 15 km/h 15 km/h 51 % 0 mm
14:23 -10.7 °C -16.1 °C 34428.8 hPa WSW 14.5 km/h 14.5 km/h 52 % 0 mm
14:28 -10.7 °C -16.1 °C 34428.8 hPa WSW 15 km/h 15 km/h 52 % 0 mm
14:33 -10.7 °C -16 °C 34395 hPa West 6 km/h 6.8 km/h 52 % 0 mm
14:38 -10.7 °C -16.1 °C 34395 hPa WSW 6.3 km/h 6.3 km/h 52 % 0 mm
14:43 -10.7 °C -16.1 °C 34395 hPa West 9 km/h 9 km/h 52 % 0 mm
14:48 -10.7 °C -15.9 °C 34428.8 hPa WSW 15 km/h 15 km/h 53 % 0 mm
14:53 -10.7 °C -15.9 °C 34428.8 hPa WSW 6 km/h 6 km/h 53 % 0 mm
14:58 -10.8 °C -15.9 °C 34428.8 hPa SW 6 km/h 6 km/h 53 % 0 mm
15:03 -10.8 °C -15.9 °C 34395 hPa WSW 15 km/h 15 km/h 53 % 0 mm
15:08 -10.8 °C -15.9 °C 34395 hPa WNW 9 km/h 9 km/h 53 % 0 mm
15:13 -10.8 °C -15.9 °C 34395 hPa SSW 6 km/h 6 km/h 54 % 0 mm
15:18 -10.8 °C -15.8 °C 34395 hPa South 6 km/h 6 km/h 54 % 0 mm
15:23 -10.8 °C -15.9 °C 34395 hPa NW 6 km/h 6 km/h 54 % 0 mm
15:28 -10.8 °C -15.9 °C 34395 hPa WSW 6 km/h 6 km/h 54 % 0 mm
15:33 -10.8 °C -15.8 °C 34395 hPa WSW 9 km/h 9 km/h 54 % 0 mm
15:38 -10.7 °C -15.8 °C 34395 hPa West 7.6 km/h 7.6 km/h 54 % 0 mm
15:43 -10.7 °C -15.8 °C 34395 hPa WSW 6 km/h 6 km/h 54 % 0 mm
15:48 -10.7 °C -15.8 °C 34428.8 hPa WNW 17.9 km/h 17.9 km/h 54 % 0 mm
15:53 -10.7 °C -15.8 °C 34428.8 hPa West 11.9 km/h 11.9 km/h 54 % 0 mm
15:58 -10.7 °C -15.6 °C 34428.8 hPa WSW 8 km/h 8 km/h 55 % 0 mm
16:03 -10.7 °C -15.6 °C 34395 hPa West 9 km/h 9 km/h 55 % 0 mm
16:08 -10.8 °C -15.7 °C 34395 hPa WNW 6 km/h 6 km/h 55 % 0 mm
16:13 -10.8 °C -15.7 °C 34395 hPa West 15 km/h 15 km/h 55 % 0 mm
16:18 -10.8 °C -15.7 °C 34395 hPa West 9 km/h 9 km/h 55 % 0 mm
16:23 -10.9 °C -15.7 °C 34395 hPa WNW 9 km/h 9 km/h 56 % 0 mm
16:28 -10.9 °C -15.7 °C 34395 hPa WSW 9 km/h 9 km/h 56 % 0 mm
16:33 -10.9 °C -15.7 °C 34428.8 hPa WSW 11.9 km/h 11.9 km/h 56 % 0 mm
16:38 -10.9 °C -15.7 °C 34428.8 hPa WSW 11.9 km/h 11.9 km/h 56 % 0 mm
16:43 -10.9 °C -15.6 °C 34428.8 hPa WSW 15.6 km/h 15.6 km/h 57 % 0 mm
16:48 -10.9 °C -15.5 °C 34395 hPa WSW 15.3 km/h 15.3 km/h 57 % 0 mm
16:53 -10.9 °C -15.4 °C 34395 hPa West 15 km/h 15 km/h 58 % 0 mm
16:58 -10.9 °C -15.4 °C 34395 hPa WNW 15 km/h 15 km/h 58 % 0 mm
17:03 -10.9 °C -15.2 °C 34428.8 hPa NNW 29.5 km/h 29.5 km/h 59 % 0 mm
17:08 -10.9 °C -15.2 °C 34428.8 hPa NNW 11.9 km/h 11.9 km/h 59 % 0 mm
17:13 -10.9 °C -15.2 °C 34428.8 hPa WSW 15 km/h 15 km/h 59 % 0 mm
17:18 -10.9 °C -15.1 °C 34428.8 hPa SSW 6 km/h 6 km/h 60 % 0 mm
17:23 -10.9 °C -15.1 °C 34428.8 hPa WSW 20.9 km/h 20.9 km/h 60 % 0 mm
17:28 -10.9 °C -15.1 °C 34428.8 hPa NNW 9 km/h 9 km/h 60 % 0 mm
17:33 -10.9 °C -15.1 °C 34428.8 hPa West 6 km/h 6 km/h 60 % 0 mm
17:38 -11 °C -15.2 °C 34428.8 hPa South 11.9 km/h 11.9 km/h 60 % 0 mm
17:43 -11 °C -15.2 °C 34428.8 hPa West 6 km/h 6 km/h 60 % 0 mm
17:48 -11.1 °C -15.2 °C 34462.7 hPa WNW 9 km/h 9 km/h 60 % 0 mm
17:53 -11.1 °C -15.1 °C 34462.7 hPa West 6 km/h 6 km/h 61 % 0 mm
17:58 -11.1 °C -15.1 °C 34462.7 hPa WSW 9 km/h 9 km/h 61 % 0 mm
18:03 -11.1 °C -15.1 °C 34428.8 hPa West 9 km/h 9 km/h 61 % 0 mm
18:08 -11 °C -15.1 °C 34428.8 hPa WSW 9 km/h 9 km/h 61 % 0 mm
18:13 -11 °C -15.1 °C 34428.8 hPa WSW 9.8 km/h 9.8 km/h 61 % 0 mm
18:18 -11 °C -15.1 °C 34428.8 hPa WSW 9 km/h 9 km/h 61 % 0 mm
18:23 -11.1 °C -14.9 °C 34428.8 hPa Calm     62 % 0 mm
18:28 -11.1 °C -14.9 °C 34428.8 hPa East 3.1 km/h   62 % 0 mm
18:33 -11 °C -14.9 °C 34428.8 hPa ESE 3.1 km/h 3.1 km/h 62 % 0 mm
18:38 -11.1 °C -14.8 °C 34428.8 hPa ESE 11.9 km/h 11.9 km/h 63 % 0 mm
18:43 -11.1 °C -14.8 °C 34428.8 hPa South 3.1 km/h 3.7 km/h 63 % 0 mm
18:48 -11.1 °C -15.1 °C 34462.7 hPa WSW 6 km/h 6 km/h 62 % 0 mm
18:53 -11.1 °C -15.1 °C 34462.7 hPa NE 6 km/h 6 km/h 62 % 0 mm
18:58 -11.1 °C -14.8 °C 34462.7 hPa NW 6 km/h 6.3 km/h 63 % 0 mm
19:03 -11.1 °C -14.9 °C 34428.8 hPa WNW 6 km/h 6 km/h 62 % 0 mm
19:08 -11.1 °C -14.9 °C 34428.8 hPa WSW 9.8 km/h 9.8 km/h 62 % 0 mm
19:13 -11 °C -14.8 °C 34428.8 hPa ENE 6 km/h 6 km/h 63 % 0 mm
19:18 -11 °C -14.9 °C 34428.8 hPa SSW 11.9 km/h 11.9 km/h 62 % 0 mm
19:23 -11 °C -14.8 °C 34428.8 hPa West 6 km/h 6 km/h 63 % 0 mm
19:28 -11 °C -14.8 °C 34428.8 hPa SW 6.3 km/h 6.3 km/h 63 % 0 mm
19:33 -11.1 °C -14.8 °C 34428.8 hPa NW 6 km/h 6 km/h 63 % 0 mm
19:38 -11.1 °C -14.8 °C 34428.8 hPa West 9 km/h 9 km/h 63 % 0 mm
19:43 -10.9 °C -14.8 °C 34428.8 hPa West 9 km/h 9 km/h 63 % 0 mm
19:48 -11 °C -14.8 °C 34428.8 hPa WSW 9 km/h 9 km/h 63 % 0 mm
19:53 -11 °C -14.8 °C 34428.8 hPa SW 15.3 km/h 15.3 km/h 63 % 0 mm
19:58 -11 °C -14.8 °C 34428.8 hPa WSW 6 km/h 6 km/h 63 % 0 mm
20:03 -11.1 °C -14.8 °C 34428.8 hPa WNW 9 km/h 9 km/h 63 % 0 mm
20:08 -11 °C -14.8 °C 34428.8 hPa WNW 8 km/h 8 km/h 63 % 0 mm
20:13 -11 °C -14.8 °C 34428.8 hPa WSW 11.9 km/h 11.9 km/h 63 % 0 mm
20:18 -11 °C -14.8 °C 34395 hPa East 11.9 km/h 11.9 km/h 63 % 0 mm
20:23 -11.1 °C -14.9 °C 34395 hPa WNW 9 km/h 9 km/h 63 % 0 mm
20:28 -11.1 °C -14.9 °C 34395 hPa WNW 9 km/h 9 km/h 63 % 0 mm
20:33 -11 °C -14.7 °C 34395 hPa WNW 15 km/h 15 km/h 64 % 0 mm
20:38 -10.9 °C -14.6 °C 34395 hPa WSW 20.9 km/h 20.9 km/h 64 % 0 mm
20:43 -10.9 °C -14.6 °C 34395 hPa SW 17.9 km/h 17.9 km/h 64 % 0 mm
20:48 -10.8 °C -14.5 °C 34395 hPa SSW 26.9 km/h 26.9 km/h 64 % 0 mm
20:53 -10.8 °C -14.5 °C 34395 hPa WNW 11.9 km/h 11.9 km/h 64 % 0 mm
20:58 -10.9 °C -14.6 °C 34395 hPa West 14.5 km/h 14.5 km/h 64 % 0 mm
21:03 -10.9 °C -14.6 °C 34428.8 hPa WNW 11.9 km/h 11.9 km/h 64 % 0 mm
21:08 -10.8 °C -14.5 °C 34428.8 hPa SSW 15.3 km/h 15.3 km/h 64 % 0 mm
21:13 -10.8 °C -14.5 °C 34428.8 hPa SW 11.9 km/h 11.9 km/h 64 % 0 mm
21:18 -10.7 °C -14.4 °C 34428.8 hPa SW 11.9 km/h 11.9 km/h 64 % 0 mm
21:23 -10.7 °C -14.4 °C 34428.8 hPa NNW 15 km/h 15 km/h 64 % 0 mm
21:28 -10.7 °C -14.4 °C 34428.8 hPa East 6.3 km/h 6.3 km/h 64 % 0 mm
21:33 -10.7 °C -14.3 °C 34428.8 hPa ESE 11.9 km/h 11.9 km/h 64 % 0 mm
21:38 -10.7 °C -14.4 °C 34428.8 hPa NE 11.9 km/h 11.9 km/h 64 % 0 mm
21:43 -10.7 °C -14.3 °C 34428.8 hPa ESE 9 km/h 9 km/h 64 % 0 mm
21:48 -10.8 °C -14.5 °C 34428.8 hPa ESE 6 km/h   64 % 0 mm
21:53 -10.8 °C -14.5 °C 34428.8 hPa WNW 6 km/h 6 km/h 64 % 0 mm
21:58 -10.8 °C -14.5 °C 34428.8 hPa WSW 6 km/h 6 km/h 64 % 0 mm
22:03 -10.8 °C -14.5 °C 34428.8 hPa WNW 15 km/h 15 km/h 64 % 0 mm
22:08 -10.8 °C -14.5 °C 34428.8 hPa WNW 6 km/h 6 km/h 64 % 0 mm
22:13 -10.8 °C -14.5 °C 34428.8 hPa SSW 10.3 km/h 10.3 km/h 64 % 0 mm
22:18 -10.8 °C -14.5 °C 34428.8 hPa SSW 7.6 km/h 7.6 km/h 64 % 0 mm
22:23 -10.8 °C -14.5 °C 34428.8 hPa ENE 9 km/h 9 km/h 64 % 0 mm
22:28 -10.8 °C -14.5 °C 34428.8 hPa West 9 km/h 9 km/h 64 % 0 mm
22:33 -10.7 °C -14.4 °C 34428.8 hPa NW 11.9 km/h 11.9 km/h 64 % 0 mm
22:38 -10.7 °C -14.4 °C 34428.8 hPa South 9 km/h 9 km/h 64 % 0 mm
22:43 -10.7 °C -14.3 °C 34428.8 hPa West 9.3 km/h 9.3 km/h 64 % 0 mm
22:48 -10.7 °C -14.3 °C 34428.8 hPa NW 14 km/h 14 km/h 64 % 0 mm
22:53 -10.6 °C -14.3 °C 34428.8 hPa NNW 15 km/h 15 km/h 64 % 0 mm
22:58 -10.6 °C -14.3 °C 34428.8 hPa WSW 9 km/h 9 km/h 64 % 0 mm
23:03 -10.6 °C -14.3 °C 34428.8 hPa WNW 11.9 km/h 11.9 km/h 64 % 0 mm
23:08 -10.6 °C -14.3 °C 34428.8 hPa WNW 17.9 km/h 17.9 km/h 64 % 0 mm
23:13 -10.6 °C -14.3 °C 34428.8 hPa WNW 11.9 km/h 11.9 km/h 64 % 0 mm
23:18 -10.6 °C -14.3 °C 34395 hPa WNW 18.3 km/h 18.3 km/h 64 % 0 mm
23:23 -10.6 °C -14.3 °C 34395 hPa ENE 20.9 km/h 20.9 km/h 64 % 0 mm
23:28 -10.6 °C -14.3 °C 34395 hPa WNW 11.9 km/h 11.9 km/h 64 % 0 mm
23:33 -10.6 °C -14.3 °C 34395 hPa WNW 20.9 km/h 20.9 km/h 64 % 0 mm
23:38 -10.5 °C -14.2 °C 34395 hPa WSW 20.9 km/h 20.9 km/h 64 % 0 mm
23:43 -10.5 °C -14.2 °C 34395 hPa NW 15 km/h 15 km/h 64 % 0 mm
23:48 -10.5 °C -14.2 °C 34428.8 hPa West 15 km/h 15 km/h 64 % 0 mm
23:53 -10.5 °C -14.2 °C 34428.8 hPa East 15 km/h 15 km/h 64 % 0 mm
23:58 -10.6 °C -14.3 °C 34428.8 hPa NW 9 km/h 9 km/h 64 % 0 mm
Meteo Sesrovires
Elogis d' Weather Underground - 2 mb

Guio original per  Jim McMurry - jmcmurry@mwt.net Adaptat per a la plantilla per  Wim van der Kuil - Leuven-Template.eu

Trobareu la nostra informacio del temps tambe a:

Weather Underground

AWEKAS